Terminal Aerodrome Forecast
Issued by NWS

Home | Current Version | Previous Version | Text Only | Print | Product List | Glossary On
Versions: 1 2 3 4 5 6 7 8 9 10 11 12 13 14 15 16
000
FTUS43 KAPX 291120
TAFMBL
TAF
KMBL 291120Z 2912/3012 15005KT P6SM -SN OVC025
      TEMPO 2912/2915 2SM -SN BKN012 OVC022
     FM291500 31007KT P6SM VCSH OVC018
     FM291800 31012G22KT P6SM OVC022
     FM292200 31017G30KT P6SM VCSH OVC025
      AMD LTD TO CLD VIS AND WIND=

USA.gov is the U.S. government's official web portal to all federal, state and local government web resources and services.